sensor_id;sensor_type;location;lat;lon;timestamp;temperature;humidity
40738;DHT22;54759;48.094;-1.628;2022-08-19T00:01:57;24.40;59.40
40738;DHT22;54759;48.094;-1.628;2022-08-19T00:05:00;24.30;59.30
40738;DHT22;54759;48.094;-1.628;2022-08-19T00:08:01;24.80;59.60
40738;DHT22;54759;48.094;-1.628;2022-08-19T00:11:03;24.70;59.50
40738;DHT22;54759;48.094;-1.628;2022-08-19T00:14:05;24.80;59.50
40738;DHT22;54759;48.094;-1.628;2022-08-19T00:17:08;24.80;59.50
40738;DHT22;54759;48.094;-1.628;2022-08-19T00:20:11;24.50;59.30
40738;DHT22;54759;48.094;-1.628;2022-08-19T00:23:16;24.50;59.30
40738;DHT22;54759;48.094;-1.628;2022-08-19T00:26:18;24.70;59.40
40738;DHT22;54759;48.094;-1.628;2022-08-19T00:29:20;24.50;59.30
40738;DHT22;54759;48.094;-1.628;2022-08-19T00:32:21;24.50;59.40
40738;DHT22;54759;48.094;-1.628;2022-08-19T00:35:22;24.40;59.20
40738;DHT22;54759;48.094;-1.628;2022-08-19T00:38:24;24.50;59.30
40738;DHT22;54759;48.094;-1.628;2022-08-19T00:41:39;25.00;59.50
40738;DHT22;54759;48.094;-1.628;2022-08-19T00:44:40;24.50;59.30
40738;DHT22;54759;48.094;-1.628;2022-08-19T00:47:42;24.50;59.30
40738;DHT22;54759;48.094;-1.628;2022-08-19T00:50:44;24.50;59.30
40738;DHT22;54759;48.094;-1.628;2022-08-19T00:53:54;24.40;59.20
40738;DHT22;54759;48.094;-1.628;2022-08-19T00:56:56;24.70;59.40
40738;DHT22;54759;48.094;-1.628;2022-08-19T00:59:58;24.60;59.30
40738;DHT22;54759;48.094;-1.628;2022-08-19T01:03:05;24.50;59.30
40738;DHT22;54759;48.094;-1.628;2022-08-19T01:06:07;24.70;59.30
40738;DHT22;54759;48.094;-1.628;2022-08-19T01:09:08;24.50;59.20
40738;DHT22;54759;48.094;-1.628;2022-08-19T01:12:10;24.70;59.40
40738;DHT22;54759;48.094;-1.628;2022-08-19T01:15:12;24.50;59.80
40738;DHT22;54759;48.094;-1.628;2022-08-19T01:18:16;24.80;59.40
40738;DHT22;54759;48.094;-1.628;2022-08-19T01:21:20;24.70;59.30
40738;DHT22;54759;48.094;-1.628;2022-08-19T01:24:24;24.30;59.10
40738;DHT22;54759;48.094;-1.628;2022-08-19T01:27:25;24.70;59.30
40738;DHT22;54759;48.094;-1.628;2022-08-19T01:30:27;24.80;59.40
40738;DHT22;54759;48.094;-1.628;2022-08-19T01:33:29;24.40;59.20
40738;DHT22;54759;48.094;-1.628;2022-08-19T01:36:33;24.60;59.20
40738;DHT22;54759;48.094;-1.628;2022-08-19T01:39:35;24.80;59.40
40738;DHT22;54759;48.094;-1.628;2022-08-19T01:42:36;24.90;59.50
40738;DHT22;54759;48.094;-1.628;2022-08-19T01:45:38;24.60;59.30
40738;DHT22;54759;48.094;-1.628;2022-08-19T01:48:44;24.70;59.30
40738;DHT22;54759;48.094;-1.628;2022-08-19T01:51:46;24.50;59.20
40738;DHT22;54759;48.094;-1.628;2022-08-19T01:54:48;24.60;59.30
40738;DHT22;54759;48.094;-1.628;2022-08-19T01:57:50;24.90;59.40
40738;DHT22;54759;48.094;-1.628;2022-08-19T02:00:52;24.50;59.20
40738;DHT22;54759;48.094;-1.628;2022-08-19T02:03:54;24.60;59.20
40738;DHT22;54759;48.094;-1.628;2022-08-19T02:06:58;24.60;59.30
40738;DHT22;54759;48.094;-1.628;2022-08-19T02:10:01;24.60;59.30
40738;DHT22;54759;48.094;-1.628;2022-08-19T02:13:10;24.70;59.30
40738;DHT22;54759;48.094;-1.628;2022-08-19T02:16:12;24.50;59.20
40738;DHT22;54759;48.094;-1.628;2022-08-19T02:19:16;24.60;59.30
40738;DHT22;54759;48.094;-1.628;2022-08-19T02:22:17;24.50;59.20
40738;DHT22;54759;48.094;-1.628;2022-08-19T02:25:20;24.60;59.30
40738;DHT22;54759;48.094;-1.628;2022-08-19T02:28:21;24.60;59.30
40738;DHT22;54759;48.094;-1.628;2022-08-19T02:31:23;24.70;59.30
40738;DHT22;54759;48.094;-1.628;2022-08-19T02:34:26;24.60;59.30
40738;DHT22;54759;48.094;-1.628;2022-08-19T02:37:27;24.70;59.30
40738;DHT22;54759;48.094;-1.628;2022-08-19T02:40:48;24.50;59.20
40738;DHT22;54759;48.094;-1.628;2022-08-19T02:43:51;24.40;59.20
40738;DHT22;54759;48.094;-1.628;2022-08-19T02:47:12;24.50;59.30
40738;DHT22;54759;48.094;-1.628;2022-08-19T02:50:15;24.70;59.40
40738;DHT22;54759;48.094;-1.628;2022-08-19T02:53:16;24.50;59.30
40738;DHT22;54759;48.094;-1.628;2022-08-19T02:56:19;24.50;59.30
40738;DHT22;54759;48.094;-1.628;2022-08-19T02:59:20;24.60;59.30
40738;DHT22;54759;48.094;-1.628;2022-08-19T03:02:23;24.60;59.40
40738;DHT22;54759;48.094;-1.628;2022-08-19T03:05:25;24.50;59.30
40738;DHT22;54759;48.094;-1.628;2022-08-19T03:08:46;24.20;59.10
40738;DHT22;54759;48.094;-1.628;2022-08-19T03:11:49;24.40;59.30
40738;DHT22;54759;48.094;-1.628;2022-08-19T03:14:53;24.60;59.30
40738;DHT22;54759;48.094;-1.628;2022-08-19T03:17:54;24.40;59.20
40738;DHT22;54759;48.094;-1.628;2022-08-19T03:20:57;24.30;59.20
40738;DHT22;54759;48.094;-1.628;2022-08-19T03:24:00;24.50;59.30
40738;DHT22;54759;48.094;-1.628;2022-08-19T03:27:06;24.60;59.40
40738;DHT22;54759;48.094;-1.628;2022-08-19T03:30:07;24.60;59.50
40738;DHT22;54759;48.094;-1.628;2022-08-19T03:33:12;24.60;59.30
40738;DHT22;54759;48.094;-1.628;2022-08-19T03:36:20;24.50;59.20
40738;DHT22;54759;48.094;-1.628;2022-08-19T03:39:22;24.70;59.30
40738;DHT22;54759;48.094;-1.628;2022-08-19T03:42:25;24.60;59.20
40738;DHT22;54759;48.094;-1.628;2022-08-19T03:45:33;24.70;59.20
40738;DHT22;54759;48.094;-1.628;2022-08-19T03:48:35;24.90;59.30
40738;DHT22;54759;48.094;-1.628;2022-08-19T03:51:38;24.70;59.30
40738;DHT22;54759;48.094;-1.628;2022-08-19T03:54:39;24.50;59.30
40738;DHT22;54759;48.094;-1.628;2022-08-19T03:57:41;24.90;59.40
40738;DHT22;54759;48.094;-1.628;2022-08-19T04:00:42;24.60;59.30
40738;DHT22;54759;48.094;-1.628;2022-08-19T04:03:44;24.40;59.20
40738;DHT22;54759;48.094;-1.628;2022-08-19T04:06:47;24.60;59.30
40738;DHT22;54759;48.094;-1.628;2022-08-19T04:09:48;24.60;59.40
40738;DHT22;54759;48.094;-1.628;2022-08-19T04:12:51;24.60;59.40
40738;DHT22;54759;48.094;-1.628;2022-08-19T04:15:53;24.60;59.40
40738;DHT22;54759;48.094;-1.628;2022-08-19T04:18:54;24.50;59.40
40738;DHT22;54759;48.094;-1.628;2022-08-19T04:21:56;24.30;59.30
40738;DHT22;54759;48.094;-1.628;2022-08-19T04:24:59;24.60;59.50
40738;DHT22;54759;48.094;-1.628;2022-08-19T04:28:01;24.60;59.50
40738;DHT22;54759;48.094;-1.628;2022-08-19T04:31:02;24.60;59.50
40738;DHT22;54759;48.094;-1.628;2022-08-19T04:34:04;24.50;59.40
40738;DHT22;54759;48.094;-1.628;2022-08-19T04:37:06;24.50;59.50
40738;DHT22;54759;48.094;-1.628;2022-08-19T04:40:13;24.50;59.50
40738;DHT22;54759;48.094;-1.628;2022-08-19T04:43:27;24.60;59.60
40738;DHT22;54759;48.094;-1.628;2022-08-19T04:46:28;24.50;59.50
40738;DHT22;54759;48.094;-1.628;2022-08-19T04:49:51;24.40;59.50
40738;DHT22;54759;48.094;-1.628;2022-08-19T04:52:52;24.70;59.70
40738;DHT22;54759;48.094;-1.628;2022-08-19T04:55:54;24.40;59.50
40738;DHT22;54759;48.094;-1.628;2022-08-19T04:58:56;24.80;59.70
40738;DHT22;54759;48.094;-1.628;2022-08-19T05:01:58;24.60;59.70
40738;DHT22;54759;48.094;-1.628;2022-08-19T05:04:59;24.60;59.60
40738;DHT22;54759;48.094;-1.628;2022-08-19T05:08:01;24.50;59.60
40738;DHT22;54759;48.094;-1.628;2022-08-19T05:11:06;24.40;59.50
40738;DHT22;54759;48.094;-1.628;2022-08-19T05:14:10;24.40;59.50
40738;DHT22;54759;48.094;-1.628;2022-08-19T05:17:13;24.60;59.70
40738;DHT22;54759;48.094;-1.628;2022-08-19T05:20:34;24.60;59.70
40738;DHT22;54759;48.094;-1.628;2022-08-19T05:23:53;24.50;59.60
40738;DHT22;54759;48.094;-1.628;2022-08-19T05:26:54;24.30;59.50
40738;DHT22;54759;48.094;-1.628;2022-08-19T05:29:58;24.50;59.70
40738;DHT22;54759;48.094;-1.628;2022-08-19T05:33:00;24.70;59.80
40738;DHT22;54759;48.094;-1.628;2022-08-19T05:36:01;24.60;59.70
40738;DHT22;54759;48.094;-1.628;2022-08-19T05:39:03;24.50;59.70
40738;DHT22;54759;48.094;-1.628;2022-08-19T05:42:05;24.60;59.80
40738;DHT22;54759;48.094;-1.628;2022-08-19T05:45:08;24.60;59.80
40738;DHT22;54759;48.094;-1.628;2022-08-19T05:48:10;24.60;59.90
40738;DHT22;54759;48.094;-1.628;2022-08-19T05:51:12;24.40;59.70
40738;DHT22;54759;48.094;-1.628;2022-08-19T05:54:21;24.60;59.90
40738;DHT22;54759;48.094;-1.628;2022-08-19T05:57:24;24.80;60.20
40738;DHT22;54759;48.094;-1.628;2022-08-19T06:00:26;24.60;59.80
40738;DHT22;54759;48.094;-1.628;2022-08-19T06:03:27;24.60;59.90
40738;DHT22;54759;48.094;-1.628;2022-08-19T06:06:29;24.40;59.80
40738;DHT22;54759;48.094;-1.628;2022-08-19T06:09:30;24.40;59.80
40738;DHT22;54759;48.094;-1.628;2022-08-19T06:12:31;24.50;60.00
40738;DHT22;54759;48.094;-1.628;2022-08-19T06:15:35;24.70;60.00
40738;DHT22;54759;48.094;-1.628;2022-08-19T06:18:36;24.50;59.90
40738;DHT22;54759;48.094;-1.628;2022-08-19T06:21:39;24.60;60.00
40738;DHT22;54759;48.094;-1.628;2022-08-19T06:24:41;24.80;60.00
40738;DHT22;54759;48.094;-1.628;2022-08-19T06:27:42;24.40;60.50
40738;DHT22;54759;48.094;-1.628;2022-08-19T06:31:06;24.50;60.00
40738;DHT22;54759;48.094;-1.628;2022-08-19T06:34:08;24.60;59.90
40738;DHT22;54759;48.094;-1.628;2022-08-19T06:37:10;24.50;60.00
40738;DHT22;54759;48.094;-1.628;2022-08-19T06:40:12;24.60;60.00
40738;DHT22;54759;48.094;-1.628;2022-08-19T06:43:13;24.40;59.90
40738;DHT22;54759;48.094;-1.628;2022-08-19T06:46:20;24.40;60.00
40738;DHT22;54759;48.094;-1.628;2022-08-19T06:49:21;24.60;60.10
40738;DHT22;54759;48.094;-1.628;2022-08-19T06:52:23;24.60;60.10
40738;DHT22;54759;48.094;-1.628;2022-08-19T06:55:26;24.30;59.90
40738;DHT22;54759;48.094;-1.628;2022-08-19T06:58:30;24.50;60.00
40738;DHT22;54759;48.094;-1.628;2022-08-19T07:01:35;24.70;60.00
40738;DHT22;54759;48.094;-1.628;2022-08-19T07:04:38;24.60;60.00
40738;DHT22;54759;48.094;-1.628;2022-08-19T07:07:43;24.40;59.90
40738;DHT22;54759;48.094;-1.628;2022-08-19T07:10:48;24.60;60.00
40738;DHT22;54759;48.094;-1.628;2022-08-19T07:13:50;24.70;60.00
40738;DHT22;54759;48.094;-1.628;2022-08-19T07:16:56;24.60;60.00
40738;DHT22;54759;48.094;-1.628;2022-08-19T07:19:58;24.50;60.00
40738;DHT22;54759;48.094;-1.628;2022-08-19T07:23:10;24.70;60.10
40738;DHT22;54759;48.094;-1.628;2022-08-19T07:26:18;24.60;60.00
40738;DHT22;54759;48.094;-1.628;2022-08-19T07:29:29;24.50;59.90
40738;DHT22;54759;48.094;-1.628;2022-08-19T07:32:31;24.70;60.00
40738;DHT22;54759;48.094;-1.628;2022-08-19T07:35:33;24.90;60.10
40738;DHT22;54759;48.094;-1.628;2022-08-19T07:38:34;24.70;60.00
40738;DHT22;54759;48.094;-1.628;2022-08-19T07:41:36;24.60;59.90
40738;DHT22;54759;48.094;-1.628;2022-08-19T07:44:40;24.70;60.00
40738;DHT22;54759;48.094;-1.628;2022-08-19T07:47:47;24.50;59.80
40738;DHT22;54759;48.094;-1.628;2022-08-19T07:50:56;24.70;60.00
40738;DHT22;54759;48.094;-1.628;2022-08-19T07:53:57;24.80;60.00
40738;DHT22;54759;48.094;-1.628;2022-08-19T07:56:59;24.80;60.00
40738;DHT22;54759;48.094;-1.628;2022-08-19T08:00:00;24.70;59.90
40738;DHT22;54759;48.094;-1.628;2022-08-19T08:03:02;24.70;59.90
40738;DHT22;54759;48.094;-1.628;2022-08-19T08:06:04;24.80;59.90
40738;DHT22;54759;48.094;-1.628;2022-08-19T08:09:17;24.70;59.80
40738;DHT22;54759;48.094;-1.628;2022-08-19T08:12:29;24.80;60.00
40738;DHT22;54759;48.094;-1.628;2022-08-19T08:15:35;24.90;60.00
40738;DHT22;54759;48.094;-1.628;2022-08-19T08:18:44;24.80;59.90
40738;DHT22;54759;48.094;-1.628;2022-08-19T08:21:57;25.00;60.00
40738;DHT22;54759;48.094;-1.628;2022-08-19T08:25:00;24.70;59.80
40738;DHT22;54759;48.094;-1.628;2022-08-19T08:28:07;24.80;59.90
40738;DHT22;54759;48.094;-1.628;2022-08-19T08:31:12;24.80;59.90
40738;DHT22;54759;48.094;-1.628;2022-08-19T08:34:14;24.80;59.90
40738;DHT22;54759;48.094;-1.628;2022-08-19T08:37:15;24.90;60.00
40738;DHT22;54759;48.094;-1.628;2022-08-19T08:40:19;24.90;59.90
40738;DHT22;54759;48.094;-1.628;2022-08-19T08:43:23;24.90;59.90
40738;DHT22;54759;48.094;-1.628;2022-08-19T08:46:34;24.80;59.80
40738;DHT22;54759;48.094;-1.628;2022-08-19T08:49:40;25.00;59.90
40738;DHT22;54759;48.094;-1.628;2022-08-19T08:52:45;25.10;60.00
40738;DHT22;54759;48.094;-1.628;2022-08-19T08:55:46;24.90;59.90
40738;DHT22;54759;48.094;-1.628;2022-08-19T08:58:51;24.90;59.90
40738;DHT22;54759;48.094;-1.628;2022-08-19T09:01:55;24.90;59.90
40738;DHT22;54759;48.094;-1.628;2022-08-19T09:04:57;24.80;59.80
40738;DHT22;54759;48.094;-1.628;2022-08-19T09:08:00;24.90;59.90
40738;DHT22;54759;48.094;-1.628;2022-08-19T09:11:06;24.90;59.80
40738;DHT22;54759;48.094;-1.628;2022-08-19T09:14:10;24.90;59.80
40738;DHT22;54759;48.094;-1.628;2022-08-19T09:17:37;25.00;59.90
40738;DHT22;54759;48.094;-1.628;2022-08-19T09:20:39;25.10;60.60
40738;DHT22;54759;48.094;-1.628;2022-08-19T09:23:43;24.80;59.80
40738;DHT22;54759;48.094;-1.628;2022-08-19T09:26:45;25.00;59.90
40738;DHT22;54759;48.094;-1.628;2022-08-19T09:29:53;25.00;59.90
40738;DHT22;54759;48.094;-1.628;2022-08-19T09:32:55;25.00;59.90
40738;DHT22;54759;48.094;-1.628;2022-08-19T09:36:04;24.80;59.80
40738;DHT22;54759;48.094;-1.628;2022-08-19T09:39:09;25.00;59.80
40738;DHT22;54759;48.094;-1.628;2022-08-19T09:42:17;25.00;59.90
40738;DHT22;54759;48.094;-1.628;2022-08-19T09:45:31;24.80;59.80
40738;DHT22;54759;48.094;-1.628;2022-08-19T09:48:33;24.90;59.80
40738;DHT22;54759;48.094;-1.628;2022-08-19T09:51:35;24.90;59.80
40738;DHT22;54759;48.094;-1.628;2022-08-19T09:54:38;24.90;59.80
40738;DHT22;54759;48.094;-1.628;2022-08-19T09:57:44;25.00;59.90
40738;DHT22;54759;48.094;-1.628;2022-08-19T10:00:46;25.10;60.00
40738;DHT22;54759;48.094;-1.628;2022-08-19T10:03:53;25.00;59.90
40738;DHT22;54759;48.094;-1.628;2022-08-19T10:06:55;25.10;60.00
40738;DHT22;54759;48.094;-1.628;2022-08-19T10:09:57;25.10;60.10
40738;DHT22;54759;48.094;-1.628;2022-08-19T10:12:59;25.00;60.00
40738;DHT22;54759;48.094;-1.628;2022-08-19T10:16:03;25.10;60.00
40738;DHT22;54759;48.094;-1.628;2022-08-19T10:19:04;25.00;59.90
40738;DHT22;54759;48.094;-1.628;2022-08-19T10:22:07;25.10;60.00
40738;DHT22;54759;48.094;-1.628;2022-08-19T10:25:13;24.90;59.90
40738;DHT22;54759;48.094;-1.628;2022-08-19T10:28:18;25.10;60.00
40738;DHT22;54759;48.094;-1.628;2022-08-19T10:31:21;25.10;60.00
40738;DHT22;54759;48.094;-1.628;2022-08-19T10:34:43;25.00;60.00
40738;DHT22;54759;48.094;-1.628;2022-08-19T10:37:50;25.10;60.00
40738;DHT22;54759;48.094;-1.628;2022-08-19T10:41:10;25.00;60.00
40738;DHT22;54759;48.094;-1.628;2022-08-19T10:44:12;24.90;60.00
40738;DHT22;54759;48.094;-1.628;2022-08-19T10:47:14;25.10;60.10
40738;DHT22;54759;48.094;-1.628;2022-08-19T10:50:26;24.70;59.90
40738;DHT22;54759;48.094;-1.628;2022-08-19T10:53:43;25.10;60.20
40738;DHT22;54759;48.094;-1.628;2022-08-19T10:56:44;25.10;60.10
40738;DHT22;54759;48.094;-1.628;2022-08-19T10:59:52;25.10;60.20
40738;DHT22;54759;48.094;-1.628;2022-08-19T11:02:54;24.90;60.10
40738;DHT22;54759;48.094;-1.628;2022-08-19T11:05:57;25.20;60.30
40738;DHT22;54759;48.094;-1.628;2022-08-19T11:08:59;25.10;60.20
40738;DHT22;54759;48.094;-1.628;2022-08-19T11:12:04;25.10;60.20
40738;DHT22;54759;48.094;-1.628;2022-08-19T11:15:06;25.10;60.20
40738;DHT22;54759;48.094;-1.628;2022-08-19T11:18:09;25.10;60.20
40738;DHT22;54759;48.094;-1.628;2022-08-19T11:21:15;25.00;60.20
40738;DHT22;54759;48.094;-1.628;2022-08-19T11:24:19;25.10;60.30
40738;DHT22;54759;48.094;-1.628;2022-08-19T11:27:21;25.20;60.50
40738;DHT22;54759;48.094;-1.628;2022-08-19T11:30:22;24.90;60.20
40738;DHT22;54759;48.094;-1.628;2022-08-19T11:33:24;25.20;60.40
40738;DHT22;54759;48.094;-1.628;2022-08-19T11:36:27;25.10;60.30
40738;DHT22;54759;48.094;-1.628;2022-08-19T11:39:30;25.10;60.30
40738;DHT22;54759;48.094;-1.628;2022-08-19T11:42:32;25.10;60.30
40738;DHT22;54759;48.094;-1.628;2022-08-19T11:45:46;24.90;60.20
40738;DHT22;54759;48.094;-1.628;2022-08-19T11:48:49;25.20;60.40
40738;DHT22;54759;48.094;-1.628;2022-08-19T11:51:51;25.00;60.30
40738;DHT22;54759;48.094;-1.628;2022-08-19T11:54:55;25.10;60.40
40738;DHT22;54759;48.094;-1.628;2022-08-19T11:57:56;25.00;60.30
40738;DHT22;54759;48.094;-1.628;2022-08-19T12:00:58;25.10;60.40
40738;DHT22;54759;48.094;-1.628;2022-08-19T12:04:00;25.20;60.50
40738;DHT22;54759;48.094;-1.628;2022-08-19T12:07:01;25.30;60.60
40738;DHT22;54759;48.094;-1.628;2022-08-19T12:10:04;25.10;60.50
40738;DHT22;54759;48.094;-1.628;2022-08-19T12:13:06;25.10;60.40
40738;DHT22;54759;48.094;-1.628;2022-08-19T12:16:08;25.00;60.40
40738;DHT22;54759;48.094;-1.628;2022-08-19T12:19:12;25.20;60.60
40738;DHT22;54759;48.094;-1.628;2022-08-19T12:22:14;25.10;60.50
40738;DHT22;54759;48.094;-1.628;2022-08-19T12:25:16;25.10;60.50
40738;DHT22;54759;48.094;-1.628;2022-08-19T12:28:19;25.10;60.60
40738;DHT22;54759;48.094;-1.628;2022-08-19T12:31:21;25.10;60.60
40738;DHT22;54759;48.094;-1.628;2022-08-19T12:34:22;24.90;60.50
40738;DHT22;54759;48.094;-1.628;2022-08-19T12:37:25;25.20;60.70
40738;DHT22;54759;48.094;-1.628;2022-08-19T12:40:28;24.90;60.50
40738;DHT22;54759;48.094;-1.628;2022-08-19T12:43:29;25.10;60.60
40738;DHT22;54759;48.094;-1.628;2022-08-19T12:46:31;25.00;60.50
40738;DHT22;54759;48.094;-1.628;2022-08-19T12:49:33;25.20;60.80
40738;DHT22;54759;48.094;-1.628;2022-08-19T12:52:55;25.20;60.70
40738;DHT22;54759;48.094;-1.628;2022-08-19T12:55:57;25.20;60.80
40738;DHT22;54759;48.094;-1.628;2022-08-19T12:59:01;25.20;60.80
40738;DHT22;54759;48.094;-1.628;2022-08-19T13:02:02;25.20;60.80
40738;DHT22;54759;48.094;-1.628;2022-08-19T13:05:07;25.00;60.60
40738;DHT22;54759;48.094;-1.628;2022-08-19T13:08:09;25.10;60.70
40738;DHT22;54759;48.094;-1.628;2022-08-19T13:11:14;25.20;60.80
40738;DHT22;54759;48.094;-1.628;2022-08-19T13:14:15;25.30;61.00
40738;DHT22;54759;48.094;-1.628;2022-08-19T13:17:18;25.00;60.70
40738;DHT22;54759;48.094;-1.628;2022-08-19T13:20:20;25.20;60.90
40738;DHT22;54759;48.094;-1.628;2022-08-19T13:23:21;25.00;60.80
40738;DHT22;54759;48.094;-1.628;2022-08-19T13:26:23;25.00;60.80
40738;DHT22;54759;48.094;-1.628;2022-08-19T13:29:24;25.20;61.00
40738;DHT22;54759;48.094;-1.628;2022-08-19T13:32:36;25.20;61.10
40738;DHT22;54759;48.094;-1.628;2022-08-19T13:35:56;25.10;61.00
40738;DHT22;54759;48.094;-1.628;2022-08-19T13:38:58;25.20;61.00
40738;DHT22;54759;48.094;-1.628;2022-08-19T13:42:00;25.00;61.00
40738;DHT22;54759;48.094;-1.628;2022-08-19T13:45:02;25.10;61.00
40738;DHT22;54759;48.094;-1.628;2022-08-19T13:48:04;25.10;61.10
40738;DHT22;54759;48.094;-1.628;2022-08-19T13:51:08;24.90;61.00
40738;DHT22;54759;48.094;-1.628;2022-08-19T13:54:11;25.10;61.10
40738;DHT22;54759;48.094;-1.628;2022-08-19T13:57:13;25.00;61.00
40738;DHT22;54759;48.094;-1.628;2022-08-19T14:00:16;24.90;61.00
40738;DHT22;54759;48.094;-1.628;2022-08-19T14:03:19;25.10;61.20
40738;DHT22;54759;48.094;-1.628;2022-08-19T14:06:20;25.20;61.20
40738;DHT22;54759;48.094;-1.628;2022-08-19T14:09:23;25.30;61.30
40738;DHT22;54759;48.094;-1.628;2022-08-19T14:12:25;25.10;61.20
40738;DHT22;54759;48.094;-1.628;2022-08-19T14:15:29;25.10;61.20
40738;DHT22;54759;48.094;-1.628;2022-08-19T14:18:30;25.20;61.30
40738;DHT22;54759;48.094;-1.628;2022-08-19T14:21:32;25.10;61.30
40738;DHT22;54759;48.094;-1.628;2022-08-19T14:24:34;25.40;61.50
40738;DHT22;54759;48.094;-1.628;2022-08-19T14:27:36;25.10;61.30
40738;DHT22;54759;48.094;-1.628;2022-08-19T14:30:38;25.10;61.30
40738;DHT22;54759;48.094;-1.628;2022-08-19T14:33:39;25.10;61.40
40738;DHT22;54759;48.094;-1.628;2022-08-19T14:36:41;25.10;61.40
40738;DHT22;54759;48.094;-1.628;2022-08-19T14:39:43;25.20;61.50
40738;DHT22;54759;48.094;-1.628;2022-08-19T14:42:45;25.20;62.10
40738;DHT22;54759;48.094;-1.628;2022-08-19T14:45:47;25.10;61.50
40738;DHT22;54759;48.094;-1.628;2022-08-19T14:48:51;25.10;61.50
40738;DHT22;54759;48.094;-1.628;2022-08-19T14:51:53;25.10;61.50
40738;DHT22;54759;48.094;-1.628;2022-08-19T14:54:55;25.10;61.50
40738;DHT22;54759;48.094;-1.628;2022-08-19T14:57:58;25.10;61.50
40738;DHT22;54759;48.094;-1.628;2022-08-19T15:01:01;24.80;61.40
40738;DHT22;54759;48.094;-1.628;2022-08-19T15:04:04;24.70;61.30
40738;DHT22;54759;48.094;-1.628;2022-08-19T15:07:05;25.10;61.70
40738;DHT22;54759;48.094;-1.628;2022-08-19T15:10:07;25.10;61.60
40738;DHT22;54759;48.094;-1.628;2022-08-19T15:13:09;25.10;61.70
40738;DHT22;54759;48.094;-1.628;2022-08-19T15:16:11;25.10;61.70
40738;DHT22;54759;48.094;-1.628;2022-08-19T15:19:19;25.10;61.70
40738;DHT22;54759;48.094;-1.628;2022-08-19T15:22:20;24.90;61.60
40738;DHT22;54759;48.094;-1.628;2022-08-19T15:25:22;25.20;61.80
40738;DHT22;54759;48.094;-1.628;2022-08-19T15:28:24;25.00;61.70
40738;DHT22;54759;48.094;-1.628;2022-08-19T15:31:26;25.10;61.80
40738;DHT22;54759;48.094;-1.628;2022-08-19T15:34:29;25.00;61.70
40738;DHT22;54759;48.094;-1.628;2022-08-19T15:37:32;25.00;61.80
40738;DHT22;54759;48.094;-1.628;2022-08-19T15:40:38;25.20;61.90
40738;DHT22;54759;48.094;-1.628;2022-08-19T15:43:41;25.10;61.80
40738;DHT22;54759;48.094;-1.628;2022-08-19T15:46:43;25.00;61.80
40738;DHT22;54759;48.094;-1.628;2022-08-19T15:49:45;25.10;61.80
40738;DHT22;54759;48.094;-1.628;2022-08-19T15:52:47;25.10;61.80
40738;DHT22;54759;48.094;-1.628;2022-08-19T15:55:50;25.00;61.80
40738;DHT22;54759;48.094;-1.628;2022-08-19T15:58:52;25.30;62.20
40738;DHT22;54759;48.094;-1.628;2022-08-19T16:02:06;25.10;61.90
40738;DHT22;54759;48.094;-1.628;2022-08-19T16:05:32;24.80;61.80
40738;DHT22;54759;48.094;-1.628;2022-08-19T16:08:46;25.00;62.00
40738;DHT22;54759;48.094;-1.628;2022-08-19T16:11:50;24.90;62.00
40738;DHT22;54759;48.094;-1.628;2022-08-19T16:14:58;25.20;62.10
40738;DHT22;54759;48.094;-1.628;2022-08-19T16:17:59;24.90;61.90
40738;DHT22;54759;48.094;-1.628;2022-08-19T16:21:03;25.00;62.00
40738;DHT22;54759;48.094;-1.628;2022-08-19T16:24:05;25.00;61.90
40738;DHT22;54759;48.094;-1.628;2022-08-19T16:27:07;25.00;61.90
40738;DHT22;54759;48.094;-1.628;2022-08-19T16:30:09;25.00;61.90
40738;DHT22;54759;48.094;-1.628;2022-08-19T16:33:11;24.90;61.80
40738;DHT22;54759;48.094;-1.628;2022-08-19T16:36:23;24.80;61.80
40738;DHT22;54759;48.094;-1.628;2022-08-19T16:39:24;25.00;61.90
40738;DHT22;54759;48.094;-1.628;2022-08-19T16:42:26;25.00;61.90
40738;DHT22;54759;48.094;-1.628;2022-08-19T16:45:28;25.00;61.80
40738;DHT22;54759;48.094;-1.628;2022-08-19T16:48:29;25.00;61.90
40738;DHT22;54759;48.094;-1.628;2022-08-19T16:51:31;24.80;61.70
40738;DHT22;54759;48.094;-1.628;2022-08-19T16:54:33;24.90;61.80
40738;DHT22;54759;48.094;-1.628;2022-08-19T16:57:35;25.00;61.80
40738;DHT22;54759;48.094;-1.628;2022-08-19T17:00:37;24.90;61.80
40738;DHT22;54759;48.094;-1.628;2022-08-19T17:03:39;25.00;61.80
40738;DHT22;54759;48.094;-1.628;2022-08-19T17:06:40;25.00;61.80
40738;DHT22;54759;48.094;-1.628;2022-08-19T17:09:43;25.00;61.80
40738;DHT22;54759;48.094;-1.628;2022-08-19T17:12:47;25.10;61.90
40738;DHT22;54759;48.094;-1.628;2022-08-19T17:15:49;25.00;61.80
40738;DHT22;54759;48.094;-1.628;2022-08-19T17:18:50;24.90;61.80
40738;DHT22;54759;48.094;-1.628;2022-08-19T17:21:52;25.10;61.90
40738;DHT22;54759;48.094;-1.628;2022-08-19T17:24:54;24.40;61.50
40738;DHT22;54759;48.094;-1.628;2022-08-19T17:28:04;25.00;61.80
40738;DHT22;54759;48.094;-1.628;2022-08-19T17:31:07;24.80;61.70
40738;DHT22;54759;48.094;-1.628;2022-08-19T17:34:09;24.80;61.80
40738;DHT22;54759;48.094;-1.628;2022-08-19T17:37:10;25.20;62.00
40738;DHT22;54759;48.094;-1.628;2022-08-19T17:40:16;24.90;61.80
40738;DHT22;54759;48.094;-1.628;2022-08-19T17:43:24;24.90;61.70
40738;DHT22;54759;48.094;-1.628;2022-08-19T17:46:36;25.00;61.80
40738;DHT22;54759;48.094;-1.628;2022-08-19T17:49:40;25.00;61.80
40738;DHT22;54759;48.094;-1.628;2022-08-19T17:52:41;24.90;61.70
40738;DHT22;54759;48.094;-1.628;2022-08-19T17:55:44;25.00;61.80
40738;DHT22;54759;48.094;-1.628;2022-08-19T17:58:48;25.00;61.80
40738;DHT22;54759;48.094;-1.628;2022-08-19T18:02:03;25.00;61.80
40738;DHT22;54759;48.094;-1.628;2022-08-19T18:05:05;25.10;61.80
40738;DHT22;54759;48.094;-1.628;2022-08-19T18:08:07;25.20;61.90
40738;DHT22;54759;48.094;-1.628;2022-08-19T18:11:11;25.10;61.70
40738;DHT22;54759;48.094;-1.628;2022-08-19T18:14:13;24.90;61.60
40738;DHT22;54759;48.094;-1.628;2022-08-19T18:17:15;25.00;61.60
40738;DHT22;54759;48.094;-1.628;2022-08-19T18:20:18;25.10;61.70
40738;DHT22;54759;48.094;-1.628;2022-08-19T18:23:20;25.00;61.60
40738;DHT22;54759;48.094;-1.628;2022-08-19T18:26:41;25.10;61.70
40738;DHT22;54759;48.094;-1.628;2022-08-19T18:29:43;25.00;61.60
40738;DHT22;54759;48.094;-1.628;2022-08-19T18:32:45;24.90;61.50
40738;DHT22;54759;48.094;-1.628;2022-08-19T18:35:49;25.10;61.60
40738;DHT22;54759;48.094;-1.628;2022-08-19T18:38:52;24.80;61.40
40738;DHT22;54759;48.094;-1.628;2022-08-19T18:42:12;25.00;61.50
40738;DHT22;54759;48.094;-1.628;2022-08-19T18:45:26;25.50;61.90
40738;DHT22;54759;48.094;-1.628;2022-08-19T18:48:44;25.00;61.50
40738;DHT22;54759;48.094;-1.628;2022-08-19T18:51:57;25.40;61.80
40738;DHT22;54759;48.094;-1.628;2022-08-19T18:55:03;25.10;61.60
40738;DHT22;54759;48.094;-1.628;2022-08-19T18:58:08;24.90;61.40
40738;DHT22;54759;48.094;-1.628;2022-08-19T19:01:11;24.90;61.40
40738;DHT22;54759;48.094;-1.628;2022-08-19T19:04:13;25.30;61.70